Phoenix, Arizona
Traffic Map
Current Weather Conditions
Phoenix, Arizona
Few Clouds
Few Clouds
92°
Feels Like: 92°
Wind Chill: 92° Ceiling: Unl
Heat Index: 92° Visibility: 10mi
Dew Point: 48° Wind: 9mph
Humidity: 22% Direction: 10° (N)
Pressure: 29.79in Gusts: 0mph
Raw Report DataKPHX 250951Z 01008KT 10SM FEW160 FEW230 33/09 A2979 RMK AO2 SLP064 T03330089
Traffic Incident Summary
Active as of:
Severity:
Category:
InformationThere was an issue retrieving the traffic information for this location. Please try a different location or try again shortly.
Advertisements
Track Severe Weather on mobile